createdAt,value
2022-08-27T00:01:23.051Z,22.60
2022-08-27T00:04:11.576Z,22.60
2022-08-27T00:07:02.240Z,22.57
2022-08-27T00:09:50.712Z,22.58
2022-08-27T00:12:39.534Z,22.58
2022-08-27T00:15:28.574Z,22.69
2022-08-27T00:18:19.854Z,22.79
2022-08-27T00:21:11.165Z,22.76
2022-08-27T00:24:01.314Z,22.67
2022-08-27T00:26:50.622Z,22.70
2022-08-27T00:29:39.074Z,22.72
2022-08-27T00:32:27.666Z,22.80
2022-08-27T00:35:17.145Z,22.70
2022-08-27T00:38:06.205Z,22.79
2022-08-27T00:40:56.369Z,22.70
2022-08-27T00:43:48.403Z,22.67
2022-08-27T00:46:39.354Z,22.80
2022-08-27T00:49:33.732Z,22.85
2022-08-27T00:52:27.309Z,22.84
2022-08-27T00:55:19.160Z,22.80
2022-08-27T00:58:14.186Z,22.77
2022-08-27T01:01:03.255Z,22.78
2022-08-27T01:03:57.047Z,22.78
2022-08-27T01:06:45.378Z,22.77
2022-08-27T01:09:33.988Z,22.70
2022-08-27T01:12:22.838Z,22.69
2022-08-27T01:15:20.053Z,22.70
2022-08-27T01:18:10.037Z,22.63
2022-08-27T01:21:04.221Z,22.60
2022-08-27T01:23:59.500Z,22.60
2022-08-27T01:26:49.312Z,22.51
2022-08-27T01:29:38.350Z,22.41
2022-08-27T01:32:29.042Z,22.49
2022-08-27T01:35:19.111Z,22.52
2022-08-27T01:38:07.484Z,22.46
2022-08-27T01:41:07.132Z,22.39
2022-08-27T01:43:56.852Z,22.45
2022-08-27T01:46:46.341Z,22.47
2022-08-27T01:49:34.736Z,22.40
2022-08-27T01:52:27.372Z,22.36
2022-08-27T01:55:18.556Z,22.31
2022-08-27T01:58:07.139Z,22.29
2022-08-27T02:01:00.506Z,22.25
2022-08-27T02:03:49.019Z,22.06
2022-08-27T02:06:37.384Z,22.08
2022-08-27T02:09:26.974Z,22.03
2022-08-27T02:12:15.446Z,22.00
2022-08-27T02:15:04.658Z,21.93
2022-08-27T02:17:54.472Z,21.86
2022-08-27T02:20:44.308Z,21.83
2022-08-27T02:23:32.711Z,21.74
2022-08-27T02:26:21.087Z,21.76
2022-08-27T02:29:10.255Z,21.61
2022-08-27T02:31:58.601Z,21.51
2022-08-27T02:34:48.423Z,21.40
2022-08-27T02:37:37.615Z,21.28
2022-08-27T02:40:26.810Z,21.14
2022-08-27T02:43:15.729Z,21.22
2022-08-27T02:46:04.511Z,21.28
2022-08-27T02:48:52.862Z,21.31
2022-08-27T02:51:43.433Z,21.31
2022-08-27T02:54:32.866Z,21.24
2022-08-27T02:57:21.493Z,21.23
2022-08-27T03:00:13.747Z,21.22
2022-08-27T03:03:03.831Z,21.23
2022-08-27T03:05:53.014Z,21.22
2022-08-27T03:08:52.919Z,21.29
2022-08-27T03:11:42.145Z,21.35
2022-08-27T03:14:31.432Z,21.33
2022-08-27T03:17:48.673Z,21.32
2022-08-27T03:20:40.915Z,21.23
2022-08-27T03:23:33.150Z,21.08
2022-08-27T03:26:22.976Z,21.07
2022-08-27T03:29:11.355Z,21.02
2022-08-27T03:31:59.827Z,20.96
2022-08-27T03:34:48.241Z,20.86
2022-08-27T03:37:36.859Z,20.83
2022-08-27T03:40:25.215Z,20.71
2022-08-27T03:43:16.324Z,20.79
2022-08-27T03:46:05.193Z,20.73
2022-08-27T03:48:54.594Z,20.75
2022-08-27T03:51:46.486Z,20.70
2022-08-27T03:54:36.187Z,20.65
2022-08-27T03:57:24.575Z,20.65
2022-08-27T04:00:15.148Z,20.63
2022-08-27T04:03:06.093Z,20.68
2022-08-27T04:05:55.417Z,20.65
2022-08-27T04:08:43.788Z,20.64
2022-08-27T04:11:32.181Z,20.62
2022-08-27T04:14:26.960Z,20.62
2022-08-27T04:17:17.302Z,20.70
2022-08-27T04:20:31.607Z,20.84
2022-08-27T04:23:16.579Z,20.74
2022-08-27T04:26:06.401Z,20.87
2022-08-27T04:28:55.359Z,20.91
2022-08-27T04:31:43.759Z,20.98
2022-08-27T04:34:33.668Z,21.08
2022-08-27T04:37:22.088Z,21.12
2022-08-27T04:40:12.078Z,21.23
2022-08-27T04:43:00.494Z,21.33
2022-08-27T04:45:50.446Z,21.35
2022-08-27T04:48:39.130Z,21.38
2022-08-27T04:51:30.339Z,21.45
2022-08-27T04:54:19.388Z,21.57
2022-08-27T04:57:16.966Z,21.58
2022-08-27T05:00:07.209Z,21.59
2022-08-27T05:02:55.575Z,21.67
2022-08-27T05:05:44.037Z,21.64
2022-08-27T05:08:34.784Z,21.80
2022-08-27T05:11:26.674Z,21.93
2022-08-27T05:14:16.798Z,22.01
2022-08-27T05:17:05.214Z,22.02
2022-08-27T05:19:53.511Z,22.22
2022-08-27T05:22:41.878Z,22.37
2022-08-27T05:25:31.525Z,22.34
2022-08-27T05:28:22.153Z,22.55
2022-08-27T05:31:17.337Z,22.64
2022-08-27T05:34:10.088Z,22.65
2022-08-27T05:36:59.023Z,22.86
2022-08-27T05:39:47.388Z,22.83
2022-08-27T05:42:37.047Z,22.96
2022-08-27T05:45:25.351Z,23.00
2022-08-27T05:48:14.725Z,22.91
2022-08-27T05:51:09.811Z,22.92
2022-08-27T05:54:00.183Z,22.96
2022-08-27T05:56:50.378Z,23.15
2022-08-27T05:59:57.681Z,23.32
2022-08-27T06:02:46.896Z,23.32
2022-08-27T06:05:35.330Z,23.49
2022-08-27T06:08:23.796Z,23.50
2022-08-27T06:11:12.239Z,23.64
2022-08-27T06:14:00.735Z,23.73
2022-08-27T06:16:50.585Z,23.82
2022-08-27T06:19:39.018Z,23.87
2022-08-27T06:22:27.319Z,23.98
2022-08-27T06:25:15.593Z,24.02
2022-08-27T06:28:04.365Z,24.04
2022-08-27T06:30:55.903Z,24.11
2022-08-27T06:33:47.957Z,24.25
2022-08-27T06:36:38.332Z,24.33
2022-08-27T06:39:26.958Z,24.49
2022-08-27T06:42:16.061Z,24.57
2022-08-27T06:45:06.242Z,24.57
2022-08-27T06:47:55.980Z,24.76
2022-08-27T06:50:45.965Z,24.69
2022-08-27T06:53:34.337Z,24.68
2022-08-27T06:56:22.776Z,24.95
2022-08-27T06:59:13.077Z,25.00
2022-08-27T07:02:01.440Z,25.16
2022-08-27T07:04:50.613Z,25.27
2022-08-27T07:07:46.710Z,25.28
2022-08-27T07:10:37.530Z,25.49
2022-08-27T07:13:25.868Z,25.67
2022-08-27T07:16:16.329Z,25.64
2022-08-27T07:19:06.751Z,25.85
2022-08-27T07:21:55.123Z,26.02
2022-08-27T07:24:44.897Z,25.98
2022-08-27T07:27:33.307Z,26.11
2022-08-27T07:30:22.003Z,26.18
2022-08-27T07:33:10.368Z,26.15
2022-08-27T07:35:58.899Z,26.28
2022-08-27T07:38:52.786Z,26.23
2022-08-27T07:42:15.788Z,26.50
2022-08-27T07:45:04.145Z,26.62
2022-08-27T07:47:54.790Z,26.67
2022-08-27T07:50:43.793Z,26.79
2022-08-27T07:53:33.129Z,26.90
2022-08-27T07:56:22.442Z,27.02
2022-08-27T07:59:12.489Z,27.00
2022-08-27T08:02:00.895Z,27.07
2022-08-27T08:04:49.302Z,27.15
2022-08-27T08:07:38.591Z,27.13
2022-08-27T08:10:27.524Z,27.16
2022-08-27T08:13:16.603Z,27.32
2022-08-27T08:16:06.807Z,27.47
2022-08-27T08:18:55.578Z,27.37
2022-08-27T08:21:44.021Z,27.38
2022-08-27T08:24:32.374Z,27.42
2022-08-27T08:27:21.311Z,27.66
2022-08-27T08:30:11.120Z,27.84
2022-08-27T08:33:00.799Z,27.87
2022-08-27T08:35:50.096Z,27.78
2022-08-27T08:38:39.348Z,27.24
2022-08-27T08:41:40.624Z,27.68
2022-08-27T08:44:34.189Z,28.03
2022-08-27T08:47:26.381Z,28.10
2022-08-27T08:50:22.209Z,27.95
2022-08-27T08:53:20.099Z,27.69
2022-08-27T08:56:12.169Z,27.99
2022-08-27T08:59:04.684Z,27.80
2022-08-27T09:01:53.068Z,27.04
2022-08-27T09:04:42.418Z,26.65
2022-08-27T09:07:37.050Z,27.07
2022-08-27T09:10:34.618Z,27.22
2022-08-27T09:13:25.950Z,27.35
2022-08-27T09:16:14.262Z,27.56
2022-08-27T09:19:05.982Z,27.98
2022-08-27T09:22:01.252Z,27.95
2022-08-27T09:25:06.557Z,28.38
2022-08-27T09:27:58.609Z,28.64
2022-08-27T09:30:46.957Z,27.58
2022-08-27T09:33:44.335Z,28.12
2022-08-27T09:36:54.704Z,28.17
2022-08-27T09:39:49.951Z,28.85
2022-08-27T09:42:44.498Z,28.75
2022-08-27T09:45:37.307Z,28.67
2022-08-27T09:48:28.734Z,28.43
2022-08-27T09:51:22.016Z,29.18
2022-08-27T09:54:13.110Z,29.34
2022-08-27T09:57:01.761Z,28.34
2022-08-27T09:59:55.545Z,28.89
2022-08-27T10:02:53.021Z,28.62
2022-08-27T10:05:51.922Z,29.30
2022-08-27T10:08:44.938Z,29.00
2022-08-27T10:11:38.936Z,29.00
2022-08-27T10:14:32.536Z,28.97
2022-08-27T10:17:29.235Z,29.50
2022-08-27T10:20:30.102Z,29.32
2022-08-27T10:23:29.503Z,29.79
2022-08-27T10:26:24.585Z,30.54
2022-08-27T10:29:22.661Z,30.79
2022-08-27T10:32:25.732Z,31.06
2022-08-27T10:35:20.857Z,30.74
2022-08-27T10:38:15.736Z,30.85
2022-08-27T10:41:13.833Z,31.08
2022-08-27T10:44:26.283Z,31.31
2022-08-27T10:47:30.805Z,30.94
2022-08-27T10:50:28.592Z,31.52
2022-08-27T10:53:27.121Z,30.68
2022-08-27T10:56:22.939Z,30.92
2022-08-27T10:59:25.804Z,31.05
2022-08-27T11:02:24.274Z,31.20
2022-08-27T11:05:18.707Z,31.12
2022-08-27T11:08:14.543Z,30.92
2022-08-27T11:11:34.986Z,31.15
2022-08-27T11:14:25.420Z,30.90
2022-08-27T11:17:19.963Z,31.07
2022-08-27T11:20:13.288Z,31.21
2022-08-27T11:23:06.062Z,31.70
2022-08-27T11:25:59.101Z,31.78
2022-08-27T11:28:55.684Z,31.67
2022-08-27T11:31:52.139Z,31.90
2022-08-27T11:34:47.548Z,31.99
2022-08-27T11:37:53.071Z,32.05
2022-08-27T11:41:00.609Z,32.35
2022-08-27T11:43:49.252Z,32.72
2022-08-27T11:46:45.170Z,33.18
2022-08-27T11:49:42.355Z,33.48
2022-08-27T11:52:36.478Z,33.42
2022-08-27T11:55:29.293Z,33.71
2022-08-27T11:58:29.184Z,33.23
2022-08-27T12:01:26.982Z,33.12
2022-08-27T12:04:24.893Z,32.96
2022-08-27T12:07:30.833Z,33.47
2022-08-27T12:10:36.578Z,34.09
2022-08-27T12:13:35.176Z,34.24
2022-08-27T12:16:32.070Z,34.64
2022-08-27T12:19:33.730Z,34.36
2022-08-27T12:22:58.705Z,33.82
2022-08-27T12:25:57.862Z,34.43
2022-08-27T12:28:47.558Z,33.65
2022-08-27T12:31:38.262Z,35.71
2022-08-27T12:34:28.982Z,37.26
2022-08-27T12:37:23.514Z,35.95
2022-08-27T12:40:22.959Z,37.17
2022-08-27T12:43:14.409Z,36.93
2022-08-27T12:46:08.273Z,38.09
2022-08-27T12:48:59.364Z,38.94
2022-08-27T12:52:14.809Z,38.62
2022-08-27T12:55:17.460Z,38.47
2022-08-27T12:58:15.790Z,37.29
2022-08-27T13:01:22.441Z,37.80
2022-08-27T13:04:21.677Z,38.08
2022-08-27T13:07:10.833Z,38.38
2022-08-27T13:10:10.758Z,38.62
2022-08-27T13:13:06.376Z,38.67
2022-08-27T13:15:58.707Z,39.13
2022-08-27T13:18:50.598Z,38.22
2022-08-27T13:21:38.974Z,39.08
2022-08-27T13:24:36.023Z,39.89
2022-08-27T13:27:26.490Z,39.15
2022-08-27T13:30:26.876Z,38.71
2022-08-27T13:33:27.982Z,39.42
2022-08-27T13:36:27.486Z,39.68
2022-08-27T13:39:19.401Z,39.90
2022-08-27T13:42:10.297Z,39.61
2022-08-27T13:45:03.769Z,38.76
2022-08-27T13:47:54.801Z,39.47
2022-08-27T13:50:50.736Z,39.44
2022-08-27T13:54:03.564Z,39.54
2022-08-27T13:57:08.328Z,39.94
2022-08-27T13:59:56.807Z,40.39
2022-08-27T14:02:56.012Z,39.88
2022-08-27T14:05:49.188Z,40.15
2022-08-27T14:08:37.669Z,39.34
2022-08-27T14:11:28.216Z,39.97
2022-08-27T14:14:19.283Z,39.99
2022-08-27T14:17:20.558Z,39.67
2022-08-27T14:20:10.094Z,39.22
2022-08-27T14:22:58.628Z,39.23
2022-08-27T14:25:48.707Z,40.01
2022-08-27T14:28:38.399Z,39.72
2022-08-27T14:31:26.835Z,39.22
2022-08-27T14:34:15.599Z,39.53
2022-08-27T14:37:04.768Z,39.34
2022-08-27T14:39:53.317Z,38.98
2022-08-27T14:42:41.714Z,38.79
2022-08-27T14:45:31.406Z,38.86
2022-08-27T14:48:28.653Z,39.13
2022-08-27T14:51:24.113Z,38.89
2022-08-27T14:54:13.048Z,38.23
2022-08-27T14:57:02.357Z,38.35
2022-08-27T14:59:50.789Z,37.93
2022-08-27T15:02:47.944Z,38.66
2022-08-27T15:05:36.648Z,38.66
2022-08-27T15:08:29.203Z,38.73
2022-08-27T15:11:24.656Z,39.22
2022-08-27T15:14:17.432Z,38.75
2022-08-27T15:17:33.359Z,39.18
2022-08-27T15:20:20.169Z,38.50
2022-08-27T15:23:10.785Z,38.32
2022-08-27T15:25:59.128Z,38.14
2022-08-27T15:28:47.686Z,37.84
2022-08-27T15:31:40.178Z,37.08
2022-08-27T15:34:28.559Z,36.97
2022-08-27T15:37:18.267Z,36.51
2022-08-27T15:40:07.956Z,36.29
2022-08-27T15:42:59.338Z,35.95
2022-08-27T15:45:47.671Z,36.17
2022-08-27T15:48:35.969Z,36.18
2022-08-27T15:51:29.634Z,36.12
2022-08-27T15:54:19.351Z,36.06
2022-08-27T15:57:09.776Z,35.64
2022-08-27T15:59:58.153Z,34.73
2022-08-27T16:02:47.669Z,32.57
2022-08-27T16:05:38.210Z,30.62
2022-08-27T16:08:26.633Z,30.75
2022-08-27T16:11:17.675Z,30.41
2022-08-27T16:14:07.438Z,29.61
2022-08-27T16:16:58.300Z,29.62
2022-08-27T16:19:46.689Z,29.80
2022-08-27T16:22:35.921Z,28.86
2022-08-27T16:25:24.330Z,28.74
2022-08-27T16:28:14.080Z,28.42
2022-08-27T16:31:02.797Z,28.25
2022-08-27T16:33:51.182Z,28.47
2022-08-27T16:36:39.509Z,27.78
2022-08-27T16:39:33.042Z,28.21
2022-08-27T16:42:23.316Z,28.33
2022-08-27T16:45:14.437Z,28.32
2022-08-27T16:48:20.676Z,28.28
2022-08-27T16:51:14.402Z,28.09
2022-08-27T16:54:04.627Z,27.98
2022-08-27T16:56:52.871Z,27.85
2022-08-27T16:59:41.112Z,27.34
2022-08-27T17:02:35.042Z,27.38
2022-08-27T17:05:33.945Z,27.20
2022-08-27T17:08:26.720Z,27.24
2022-08-27T17:11:17.499Z,27.01
2022-08-27T17:14:05.818Z,27.21
2022-08-27T17:16:55.104Z,26.55
2022-08-27T17:19:45.426Z,26.48
2022-08-27T17:22:33.920Z,26.33
2022-08-27T17:25:22.166Z,26.17
2022-08-27T17:28:18.582Z,26.06
2022-08-27T17:31:08.318Z,26.29
2022-08-27T17:33:59.419Z,26.15
2022-08-27T17:36:49.592Z,25.97
2022-08-27T17:39:38.020Z,26.07
2022-08-27T17:42:26.749Z,25.97
2022-08-27T17:45:17.215Z,25.87
2022-08-27T17:48:14.049Z,25.61
2022-08-27T17:51:06.645Z,25.39
2022-08-27T17:54:01.252Z,25.74
2022-08-27T17:56:49.956Z,25.34
2022-08-27T17:59:38.584Z,25.35
2022-08-27T18:02:33.822Z,25.12
2022-08-27T18:05:24.985Z,25.36
2022-08-27T18:08:13.658Z,25.05
2022-08-27T18:11:04.528Z,25.68
2022-08-27T18:13:55.668Z,26.60
2022-08-27T18:16:43.958Z,26.55
2022-08-27T18:19:32.284Z,26.30
2022-08-27T18:22:21.314Z,25.34
2022-08-27T18:25:10.740Z,25.23
2022-08-27T18:28:03.402Z,25.67
2022-08-27T18:30:52.404Z,26.40
2022-08-27T18:33:40.901Z,26.41
2022-08-27T18:36:29.700Z,25.53
2022-08-27T18:39:17.982Z,25.84
2022-08-27T18:42:06.882Z,25.46
2022-08-27T18:44:56.707Z,25.18
2022-08-27T18:47:45.562Z,25.02
2022-08-27T18:50:33.989Z,25.09
2022-08-27T18:53:22.600Z,24.91
2022-08-27T18:56:12.300Z,24.65
2022-08-27T18:59:06.985Z,24.51
2022-08-27T19:01:57.375Z,24.44
2022-08-27T19:04:45.982Z,24.55
2022-08-27T19:07:34.384Z,24.43
2022-08-27T19:10:22.876Z,24.17
2022-08-27T19:13:11.216Z,23.82
2022-08-27T19:16:02.912Z,23.58
2022-08-27T19:18:53.096Z,23.33
2022-08-27T19:21:41.807Z,23.10
2022-08-27T19:24:30.124Z,22.67
2022-08-27T19:27:27.634Z,22.76
2022-08-27T19:30:17.297Z,22.66
2022-08-27T19:33:05.642Z,22.24
2022-08-27T19:35:55.411Z,22.12
2022-08-27T19:38:44.863Z,22.11
2022-08-27T19:41:34.531Z,22.06
2022-08-27T19:44:22.875Z,21.81
2022-08-27T19:47:12.720Z,21.66
2022-08-27T19:50:01.074Z,21.67
2022-08-27T19:52:50.682Z,21.17
2022-08-27T19:55:39.832Z,20.95
2022-08-27T19:58:28.196Z,20.98
2022-08-27T20:01:16.634Z,20.94
2022-08-27T20:04:05.974Z,20.92
2022-08-27T20:06:54.364Z,21.01
2022-08-27T20:09:44.076Z,21.12
2022-08-27T20:12:32.401Z,21.52
2022-08-27T20:15:23.484Z,21.49
2022-08-27T20:18:14.001Z,21.66
2022-08-27T20:21:05.799Z,21.43
2022-08-27T20:23:54.459Z,21.14
2022-08-27T20:26:44.151Z,21.51
2022-08-27T20:29:33.073Z,21.17
2022-08-27T20:32:22.780Z,21.70
2022-08-27T20:35:12.323Z,21.48
2022-08-27T20:38:00.696Z,21.99
2022-08-27T20:40:49.355Z,21.57
2022-08-27T20:43:39.062Z,21.65
2022-08-27T20:46:30.656Z,21.31
2022-08-27T20:49:19.010Z,21.14
2022-08-27T20:52:10.947Z,21.43
2022-08-27T20:54:59.964Z,21.44
2022-08-27T20:58:06.916Z,21.73
2022-08-27T21:00:58.034Z,20.64
2022-08-27T21:03:46.378Z,20.43
2022-08-27T21:06:34.680Z,21.07
2022-08-27T21:09:22.907Z,20.33
2022-08-27T21:12:11.206Z,20.12
2022-08-27T21:15:00.717Z,20.06
2022-08-27T21:17:50.483Z,20.09
2022-08-27T21:20:38.872Z,20.79
2022-08-27T21:23:27.924Z,20.73
2022-08-27T21:26:16.238Z,20.98
2022-08-27T21:29:05.929Z,21.21
2022-08-27T21:31:54.319Z,21.46
2022-08-27T21:34:44.307Z,21.33
2022-08-27T21:37:32.663Z,21.55
2022-08-27T21:40:21.210Z,21.56
2022-08-27T21:43:09.526Z,21.44
2022-08-27T21:45:58.899Z,21.77
2022-08-27T21:48:47.789Z,21.79
2022-08-27T21:51:48.620Z,21.90
2022-08-27T21:54:42.188Z,21.96
2022-08-27T21:57:30.482Z,21.96
2022-08-27T22:00:38.623Z,21.80
2022-08-27T22:03:27.296Z,21.81
2022-08-27T22:06:15.699Z,21.77
2022-08-27T22:09:05.444Z,21.85
2022-08-27T22:11:53.755Z,21.83
2022-08-27T22:14:42.077Z,21.85
2022-08-27T22:17:30.337Z,22.01
2022-08-27T22:20:19.017Z,22.02
2022-08-27T22:23:08.899Z,22.12
2022-08-27T22:25:58.859Z,22.26
2022-08-27T22:28:47.234Z,22.27
2022-08-27T22:31:36.186Z,22.23
2022-08-27T22:34:24.554Z,21.00
2022-08-27T22:37:13.001Z,21.73
2022-08-27T22:40:01.439Z,21.71
2022-08-27T22:42:52.211Z,21.63
2022-08-27T22:45:40.565Z,21.90
2022-08-27T22:48:28.961Z,21.32
2022-08-27T22:51:17.289Z,21.38
2022-08-27T22:54:05.875Z,21.74
2022-08-27T22:56:54.245Z,21.72
2022-08-27T22:59:43.967Z,21.25
2022-08-27T23:02:32.397Z,21.01
2022-08-27T23:05:21.014Z,21.05
2022-08-27T23:08:11.047Z,20.57
2022-08-27T23:10:59.448Z,20.32
2022-08-27T23:13:47.938Z,20.56
2022-08-27T23:16:37.791Z,20.54
2022-08-27T23:19:26.328Z,20.39
2022-08-27T23:22:16.291Z,20.39
2022-08-27T23:25:23.376Z,20.66
2022-08-27T23:28:14.838Z,20.61
2022-08-27T23:31:03.839Z,20.94
2022-08-27T23:33:54.580Z,21.05
2022-08-27T23:36:42.966Z,21.06
2022-08-27T23:39:31.284Z,21.28
2022-08-27T23:42:20.168Z,20.87
2022-08-27T23:45:11.826Z,20.84
2022-08-27T23:48:00.132Z,20.46
2022-08-27T23:50:50.814Z,20.12
2022-08-27T23:53:39.402Z,20.37
2022-08-27T23:56:29.985Z,20.65
2022-08-27T23:59:18.695Z,19.98
